FWA - Fort Wayne Intl

Pirep is a free, collaborative database of all public and private airports located within the United States. All pilots are welcome to contribute, edit, and improve any airport they have local knowledge about, no registration required.
Uploaded photos will be licensed under a CC BY-SA 4.0 license. Please only upload photos you have the rights to use.
Tags
Public
METAR / TAF
Flying Clubs
Edit Tags
Food
Camping
Lodging
Car Rental
Bicycles
Swimming
Golfing
Fishing
Hot Springs
Museum
Airpark
Upcoming Events
No upcoming events. Is anything happening here soon?
*
*
*

Where exactly on/near the airport is this event taking place?

Is there a webpage with more information for this event?

Who should be contacted for more information?

What is this event all about?

Repeat every
Description
Transient Parking
Fuel Location
Landing & Tie-down Fees
Crew Car Availability
Flying Clubs
Last updated: 2024-02-11 02:30:52 EST
WiFi Access
Airport Statistics
Location: Fort Wayne, IN
Elevation: 814ft
Sectional: Chicago
Activation date: Jan 1943
Fuel: 100LL, A, A+ (prices)
Runway 05/23: 11,981ft
Runway 14/32: 8,002ft
Runway 09/27: 4,001ft
Access: Open to the public
Current Weather — VFR
  • Weather data is strictly informational and not for flight planning purposes.
  • METAR
    2024-04-22 00:54:00 EDT
    Ceiling Wind Temperature Dewpoint Weather Visbility
    Sky clear 210° @ 4kt 35°F 28°F N/A 10SM
    Raw: KFWA 220454Z 21004KT 10SM CLR 02/M02 A3014 RMK AO2 SLP210 T00221017 401220022
  • TAF
    2024-04-22 02:00:00 EDT – 2024-04-22 10:00:00 EDT
    Ceiling Wind Weather Visbility
    Sky clear 250° @ 5kt N/A 6SM
    Clouds: @ ft
    Raw: KFWA 220521Z 2206/2306 25005KT P6SM SKC FM221400 23009G16KT P6SM SKC FM230200 20010G20KT P6SM BKN200
  • TAF
    2024-04-22 10:00:00 EDT – 2024-04-22 22:00:00 EDT
    Ceiling Wind Weather Visbility
    Sky clear 230° @ 9kt, gusts 16kt N/A 6SM
    Clouds: @ ft
    Raw: KFWA 220521Z 2206/2306 25005KT P6SM SKC FM221400 23009G16KT P6SM SKC FM230200 20010G20KT P6SM BKN200
  • TAF
    2024-04-22 22:00:00 EDT – 2024-04-23 02:00:00 EDT
    Ceiling Wind Weather Visbility
    20,000ft 200° @ 10kt, gusts 20kt N/A 6SM
    Clouds: Broken @ 20,000ft
    Raw: KFWA 220521Z 2206/2306 25005KT P6SM SKC FM221400 23009G16KT P6SM SKC FM230200 20010G20KT P6SM BKN200
Click/tap to add an annotation marker to the map
Airport Webcams
No webcams added yet.
Direct links to live image URLs will be displayed inline on this page. URLs to separate webpages will be linked to.
URL:
Direct links to live image URLs will be displayed inline on this page. URLs to separate webpages will be linked to.
URL:
Remarks
  • Atc-ctl
  • Arff index c avbl upon req - 260-747-2624.
  • Birds on & invof arpt.
  • Twy m & east ramp mil use only; otr by request - ang 260-478-3202.
  • Twy b arm/dearm area rstrd to mil acft.
Comments
Leave a comment What was your experience like at this airport?